N172SP KDCU-KBNA
Flight info
| Callsign | N172SP |
|---|---|
| Flight time | 0h 51m |
| Altitude | 5500 |
| Route | KDCU DCT KBNA |
| Aircraft | C172/L-S/S |
Departure
| Time | 2026-04-26 04:44 |
|---|---|
| Airport | Pryor Field Regional Airport (KDCU) |
Arrival
| Time | 2026-04-26 05:35 |
|---|---|
| Airport | Nashville International Airport (KBNA) |
| Time | Latitude | Longitude | Altitude | Speed | Heading |
|---|---|---|---|---|---|
| 2026-04-26 04:26 | 34.64857 | -86.94734 | 579 ft | 0 kts | 89° |
| 2026-04-26 04:40 | 34.64859 | -86.94714 | 579 ft | 5 kts | 78° |
| 2026-04-26 04:40 | 34.64857 | -86.94688 | 579 ft | 1 kts | 123° |
| 2026-04-26 04:41 | 34.64834 | -86.94681 | 579 ft | 6 kts | 179° |
| 2026-04-26 04:41 | 34.64774 | -86.94680 | 579 ft | 10 kts | 180° |
| 2026-04-26 04:41 | 34.64693 | -86.94682 | 578 ft | 13 kts | 179° |
| 2026-04-26 04:41 | 34.64599 | -86.94683 | 580 ft | 12 kts | 175° |
| 2026-04-26 04:42 | 34.64576 | -86.94627 | 580 ft | 5 kts | 90° |
| 2026-04-26 04:42 | 34.64576 | -86.94603 | 580 ft | 0 kts | 88° |
| 2026-04-26 04:42 | 34.64580 | -86.94571 | 580 ft | 6 kts | 64° |
| 2026-04-26 04:42 | 34.64639 | -86.94557 | 581 ft | 16 kts | 1° |
| 2026-04-26 04:43 | 34.64897 | -86.94551 | 581 ft | 56 kts | 1° |
| 2026-04-26 04:43 | 34.65382 | -86.94536 | 620 ft | 76 kts | 355° |
| 2026-04-26 04:43 | 34.65943 | -86.94541 | 716 ft | 84 kts | 1° |
| 2026-04-26 04:43 | 34.66525 | -86.94493 | 871 ft | 83 kts | 10° |
| 2026-04-26 04:44 | 34.67093 | -86.94354 | 1033 ft | 82 kts | 11° |
| 2026-04-26 04:44 | 34.67649 | -86.94224 | 1191 ft | 81 kts | 11° |
| 2026-04-26 04:44 | 34.68206 | -86.94106 | 1347 ft | 80 kts | 10° |
| 2026-04-26 04:44 | 34.68727 | -86.94003 | 1560 ft | 72 kts | 10° |
| 2026-04-26 04:45 | 34.69215 | -86.93914 | 1746 ft | 69 kts | 10° |
| 2026-04-26 04:45 | 34.69689 | -86.93829 | 1906 ft | 68 kts | 10° |
| 2026-04-26 04:45 | 34.70159 | -86.93745 | 2069 ft | 68 kts | 10° |
| 2026-04-26 04:45 | 34.70627 | -86.93662 | 2229 ft | 67 kts | 10° |
| 2026-04-26 04:46 | 34.71098 | -86.93578 | 2383 ft | 68 kts | 11° |
| 2026-04-26 04:46 | 34.71561 | -86.93497 | 2553 ft | 67 kts | 10° |
| 2026-04-26 04:46 | 34.72023 | -86.93415 | 2714 ft | 67 kts | 9° |
| 2026-04-26 04:46 | 34.72483 | -86.93333 | 2878 ft | 66 kts | 10° |
| 2026-04-26 04:47 | 34.72939 | -86.93252 | 3034 ft | 66 kts | 10° |
| 2026-04-26 04:47 | 34.73393 | -86.93172 | 3193 ft | 66 kts | 10° |
| 2026-04-26 04:47 | 34.73848 | -86.93091 | 3356 ft | 65 kts | 10° |
| 2026-04-26 04:47 | 34.74312 | -86.93007 | 3462 ft | 72 kts | 11° |
| 2026-04-26 04:48 | 34.75413 | -86.92790 | 3720 ft | 74 kts | 10° |
| 2026-04-26 04:48 | 34.75917 | -86.92699 | 3884 ft | 72 kts | 9° |
| 2026-04-26 04:48 | 34.76436 | -86.92606 | 3970 ft | 80 kts | 9° |
| 2026-04-26 04:49 | 34.76989 | -86.92503 | 4123 ft | 78 kts | 9° |
| 2026-04-26 04:49 | 34.77524 | -86.92405 | 4287 ft | 75 kts | 8° |
| 2026-04-26 04:49 | 34.78037 | -86.92314 | 4429 ft | 75 kts | 8° |
| 2026-04-26 04:49 | 34.78558 | -86.92222 | 4572 ft | 75 kts | 7° |
| 2026-04-26 04:50 | 34.79085 | -86.92128 | 4714 ft | 75 kts | 7° |
| 2026-04-26 04:50 | 34.79608 | -86.92034 | 4850 ft | 76 kts | 7° |
| 2026-04-26 04:50 | 34.80139 | -86.91939 | 4986 ft | 77 kts | 7° |
| 2026-04-26 04:50 | 34.80672 | -86.91843 | 5131 ft | 76 kts | 7° |
| 2026-04-26 04:51 | 34.81201 | -86.91748 | 5264 ft | 76 kts | 6° |
| 2026-04-26 04:51 | 34.81727 | -86.91653 | 5392 ft | 77 kts | 6° |
| 2026-04-26 04:51 | 34.82281 | -86.91554 | 5466 ft | 84 kts | 6° |
| 2026-04-26 04:51 | 34.82907 | -86.91438 | 5478 ft | 96 kts | 7° |
| 2026-04-26 04:52 | 34.83599 | -86.91305 | 5476 ft | 103 kts | 7° |
| 2026-04-26 04:52 | 34.84322 | -86.91167 | 5471 ft | 108 kts | 8° |
| 2026-04-26 04:52 | 34.85075 | -86.91026 | 5468 ft | 110 kts | 7° |
| 2026-04-26 04:52 | 34.85838 | -86.90884 | 5464 ft | 110 kts | 8° |
| 2026-04-26 04:53 | 34.86586 | -86.90745 | 5457 ft | 105 kts | 8° |
| 2026-04-26 04:53 | 34.87288 | -86.90616 | 5455 ft | 101 kts | 7° |
| 2026-04-26 04:53 | 34.87982 | -86.90491 | 5454 ft | 96 kts | 7° |
| 2026-04-26 04:53 | 34.88635 | -86.90374 | 5453 ft | 95 kts | 7° |
| 2026-04-26 04:54 | 34.89291 | -86.90257 | 5454 ft | 94 kts | 7° |
| 2026-04-26 04:54 | 34.89948 | -86.90140 | 5457 ft | 93 kts | 7° |
| 2026-04-26 04:54 | 34.90591 | -86.90026 | 5457 ft | 94 kts | 6° |
| 2026-04-26 04:54 | 34.91272 | -86.89909 | 5463 ft | 102 kts | 6° |
| 2026-04-26 04:55 | 34.91995 | -86.89780 | 5463 ft | 106 kts | 7° |
| 2026-04-26 04:55 | 34.92734 | -86.89647 | 5461 ft | 109 kts | 7° |
| 2026-04-26 04:55 | 34.93496 | -86.89508 | 5461 ft | 110 kts | 7° |
| 2026-04-26 04:55 | 34.94260 | -86.89370 | 5456 ft | 110 kts | 7° |
| 2026-04-26 04:56 | 34.95016 | -86.89233 | 5458 ft | 111 kts | 7° |
| 2026-04-26 04:56 | 34.95786 | -86.89095 | 5457 ft | 111 kts | 7° |
| 2026-04-26 04:56 | 34.96550 | -86.88957 | 5462 ft | 111 kts | 7° |
| 2026-04-26 04:56 | 34.97321 | -86.88818 | 5461 ft | 111 kts | 7° |
| 2026-04-26 04:57 | 34.98094 | -86.88680 | 5461 ft | 111 kts | 7° |
| 2026-04-26 04:57 | 34.98864 | -86.88541 | 5462 ft | 111 kts | 7° |
| 2026-04-26 04:57 | 34.99632 | -86.88403 | 5461 ft | 111 kts | 7° |
| 2026-04-26 04:57 | 35.00401 | -86.88264 | 5465 ft | 111 kts | 7° |
| 2026-04-26 04:58 | 35.01169 | -86.88126 | 5464 ft | 111 kts | 7° |
| 2026-04-26 04:58 | 35.01937 | -86.87988 | 5463 ft | 111 kts | 7° |
| 2026-04-26 04:58 | 35.02704 | -86.87850 | 5463 ft | 111 kts | 8° |
| 2026-04-26 04:58 | 35.03481 | -86.87711 | 5464 ft | 111 kts | 8° |
| 2026-04-26 04:59 | 35.04248 | -86.87573 | 5461 ft | 111 kts | 8° |
| 2026-04-26 04:59 | 35.05007 | -86.87436 | 5463 ft | 111 kts | 8° |
| 2026-04-26 04:59 | 35.05773 | -86.87298 | 5464 ft | 111 kts | 8° |
| 2026-04-26 04:59 | 35.06538 | -86.87160 | 5466 ft | 111 kts | 8° |
| 2026-04-26 05:00 | 35.07308 | -86.87021 | 5464 ft | 110 kts | 7° |
| 2026-04-26 05:00 | 35.08068 | -86.86885 | 5467 ft | 110 kts | 8° |
| 2026-04-26 05:00 | 35.08841 | -86.86746 | 5466 ft | 111 kts | 7° |
| 2026-04-26 05:00 | 35.09607 | -86.86607 | 5466 ft | 111 kts | 7° |
| 2026-04-26 05:01 | 35.10377 | -86.86468 | 5466 ft | 111 kts | 7° |
| 2026-04-26 05:01 | 35.11155 | -86.86328 | 5466 ft | 111 kts | 7° |
| 2026-04-26 05:01 | 35.11918 | -86.86191 | 5466 ft | 111 kts | 8° |
| 2026-04-26 05:01 | 35.12691 | -86.86053 | 5470 ft | 111 kts | 8° |
| 2026-04-26 05:02 | 35.13462 | -86.85915 | 5469 ft | 111 kts | 8° |
| 2026-04-26 05:02 | 35.14233 | -86.85779 | 5471 ft | 111 kts | 8° |
| 2026-04-26 05:02 | 35.15004 | -86.85642 | 5470 ft | 111 kts | 8° |
| 2026-04-26 05:02 | 35.15768 | -86.85507 | 5471 ft | 111 kts | 8° |
| 2026-04-26 05:03 | 35.16543 | -86.85368 | 5470 ft | 111 kts | 8° |
| 2026-04-26 05:03 | 35.17309 | -86.85232 | 5471 ft | 111 kts | 8° |
| 2026-04-26 05:03 | 35.18076 | -86.85094 | 5472 ft | 111 kts | 8° |
| 2026-04-26 05:03 | 35.18845 | -86.84956 | 5471 ft | 111 kts | 8° |
| 2026-04-26 05:04 | 35.19614 | -86.84817 | 5467 ft | 111 kts | 8° |
| 2026-04-26 05:04 | 35.20380 | -86.84679 | 5467 ft | 111 kts | 8° |
| 2026-04-26 05:04 | 35.21146 | -86.84542 | 5468 ft | 111 kts | 8° |
| 2026-04-26 05:04 | 35.21917 | -86.84403 | 5469 ft | 111 kts | 8° |
| 2026-04-26 05:05 | 35.22677 | -86.84266 | 5470 ft | 110 kts | 8° |
| 2026-04-26 05:05 | 35.23445 | -86.84127 | 5471 ft | 110 kts | 8° |
| 2026-04-26 05:05 | 35.24207 | -86.83989 | 5470 ft | 110 kts | 8° |
| 2026-04-26 05:05 | 35.24964 | -86.83852 | 5469 ft | 111 kts | 8° |
| 2026-04-26 05:06 | 35.25727 | -86.83714 | 5470 ft | 111 kts | 8° |
| 2026-04-26 05:06 | 35.26503 | -86.83574 | 5468 ft | 111 kts | 8° |
| 2026-04-26 05:06 | 35.27268 | -86.83436 | 5470 ft | 111 kts | 8° |
| 2026-04-26 05:06 | 35.28032 | -86.83297 | 5470 ft | 111 kts | 8° |
| 2026-04-26 05:07 | 35.28794 | -86.83160 | 5472 ft | 110 kts | 8° |
| 2026-04-26 05:07 | 35.29562 | -86.83020 | 5470 ft | 110 kts | 8° |
| 2026-04-26 05:07 | 35.30322 | -86.82883 | 5471 ft | 110 kts | 8° |
| 2026-04-26 05:07 | 35.31088 | -86.82744 | 5471 ft | 110 kts | 8° |
| 2026-04-26 05:08 | 35.31854 | -86.82605 | 5473 ft | 111 kts | 8° |
| 2026-04-26 05:08 | 35.32622 | -86.82466 | 5472 ft | 111 kts | 8° |
| 2026-04-26 05:08 | 35.33387 | -86.82327 | 5473 ft | 111 kts | 8° |
| 2026-04-26 05:08 | 35.34155 | -86.82188 | 5471 ft | 111 kts | 8° |
| 2026-04-26 05:09 | 35.34916 | -86.82050 | 5475 ft | 111 kts | 8° |
| 2026-04-26 05:09 | 35.35686 | -86.81911 | 5476 ft | 111 kts | 9° |
| 2026-04-26 05:09 | 35.36448 | -86.81773 | 5475 ft | 111 kts | 9° |
| 2026-04-26 05:09 | 35.37214 | -86.81633 | 5476 ft | 111 kts | 9° |
| 2026-04-26 05:10 | 35.37991 | -86.81493 | 5479 ft | 111 kts | 9° |
| 2026-04-26 05:10 | 35.38765 | -86.81353 | 5475 ft | 112 kts | 7° |
| 2026-04-26 05:10 | 35.39537 | -86.81214 | 5486 ft | 111 kts | 8° |
| 2026-04-26 05:10 | 35.40309 | -86.81071 | 5477 ft | 112 kts | 10° |
| 2026-04-26 05:11 | 35.41081 | -86.80933 | 5465 ft | 111 kts | 10° |
| 2026-04-26 05:11 | 35.41851 | -86.80793 | 5472 ft | 111 kts | 9° |
| 2026-04-26 05:11 | 35.42618 | -86.80650 | 5481 ft | 111 kts | 9° |
| 2026-04-26 05:11 | 35.43386 | -86.80511 | 5482 ft | 111 kts | 10° |
| 2026-04-26 05:12 | 35.44155 | -86.80375 | 5480 ft | 111 kts | 9° |
| 2026-04-26 05:12 | 35.44931 | -86.80235 | 5476 ft | 111 kts | 9° |
| 2026-04-26 05:12 | 35.45694 | -86.80095 | 5463 ft | 110 kts | 9° |
| 2026-04-26 05:12 | 35.46452 | -86.79959 | 5474 ft | 110 kts | 8° |
| 2026-04-26 05:13 | 35.47222 | -86.79817 | 5473 ft | 110 kts | 9° |
| 2026-04-26 05:13 | 35.47985 | -86.79678 | 5475 ft | 110 kts | 8° |
| 2026-04-26 05:13 | 35.48748 | -86.79539 | 5479 ft | 110 kts | 9° |
| 2026-04-26 05:13 | 35.49514 | -86.79401 | 5478 ft | 110 kts | 10° |
| 2026-04-26 05:14 | 35.50279 | -86.79262 | 5474 ft | 110 kts | 8° |
| 2026-04-26 05:14 | 35.51043 | -86.79119 | 5478 ft | 111 kts | 9° |
| 2026-04-26 05:14 | 35.51809 | -86.78982 | 5495 ft | 111 kts | 9° |
| 2026-04-26 05:14 | 35.52583 | -86.78842 | 5479 ft | 112 kts | 9° |
| 2026-04-26 05:15 | 35.53354 | -86.78702 | 5469 ft | 110 kts | 11° |
| 2026-04-26 05:15 | 35.54106 | -86.78568 | 5499 ft | 110 kts | 9° |
| 2026-04-26 05:15 | 35.54872 | -86.78425 | 5468 ft | 110 kts | 11° |
| 2026-04-26 05:15 | 35.55636 | -86.78287 | 5496 ft | 109 kts | 10° |
| 2026-04-26 05:16 | 35.56403 | -86.78149 | 5483 ft | 111 kts | 10° |
| 2026-04-26 05:16 | 35.57180 | -86.78208 | 5482 ft | 112 kts | 353° |
| 2026-04-26 05:16 | 35.57952 | -86.78413 | 5461 ft | 113 kts | 350° |
| 2026-04-26 05:16 | 35.58722 | -86.78627 | 5480 ft | 112 kts | 349° |
| 2026-04-26 05:17 | 35.59497 | -86.78844 | 5506 ft | 113 kts | 348° |
| 2026-04-26 05:17 | 35.60278 | -86.79061 | 5483 ft | 114 kts | 350° |
| 2026-04-26 05:17 | 35.61056 | -86.79282 | 5472 ft | 114 kts | 350° |
| 2026-04-26 05:17 | 35.61827 | -86.79498 | 5474 ft | 113 kts | 351° |
| 2026-04-26 05:18 | 35.62588 | -86.79712 | 5483 ft | 112 kts | 350° |
| 2026-04-26 05:18 | 35.63382 | -86.79933 | 5385 ft | 118 kts | 351° |
| 2026-04-26 05:18 | 35.64198 | -86.80159 | 5286 ft | 120 kts | 351° |
| 2026-04-26 05:18 | 35.65023 | -86.80385 | 5186 ft | 121 kts | 351° |
| 2026-04-26 05:19 | 35.65844 | -86.80608 | 5088 ft | 122 kts | 351° |
| 2026-04-26 05:19 | 35.66682 | -86.80839 | 4987 ft | 122 kts | 352° |
| 2026-04-26 05:19 | 35.67508 | -86.81066 | 4885 ft | 122 kts | 352° |
| 2026-04-26 05:19 | 35.68342 | -86.81295 | 4785 ft | 122 kts | 352° |
| 2026-04-26 05:20 | 35.69175 | -86.81523 | 4682 ft | 122 kts | 353° |
| 2026-04-26 05:20 | 35.70016 | -86.81754 | 4578 ft | 123 kts | 353° |
| 2026-04-26 05:20 | 35.70848 | -86.81981 | 4476 ft | 123 kts | 352° |
| 2026-04-26 05:20 | 35.71695 | -86.82212 | 4373 ft | 123 kts | 353° |
| 2026-04-26 05:21 | 35.72532 | -86.82382 | 4272 ft | 121 kts | 359° |
| 2026-04-26 05:21 | 35.73379 | -86.82428 | 4169 ft | 120 kts | 5° |
| 2026-04-26 05:21 | 35.74204 | -86.82378 | 4068 ft | 119 kts | 9° |
| 2026-04-26 05:21 | 35.75035 | -86.82256 | 3965 ft | 118 kts | 13° |
| 2026-04-26 05:22 | 35.75849 | -86.82085 | 3864 ft | 118 kts | 15° |
| 2026-04-26 05:22 | 35.76645 | -86.81879 | 3762 ft | 117 kts | 17° |
| 2026-04-26 05:22 | 35.77446 | -86.81644 | 3660 ft | 117 kts | 19° |
| 2026-04-26 05:22 | 35.78235 | -86.81391 | 3557 ft | 116 kts | 20° |
| 2026-04-26 05:23 | 35.79012 | -86.81127 | 3443 ft | 116 kts | 21° |
| 2026-04-26 05:23 | 35.79798 | -86.80848 | 3344 ft | 116 kts | 22° |
| 2026-04-26 05:23 | 35.80570 | -86.80565 | 3243 ft | 115 kts | 23° |
| 2026-04-26 05:23 | 35.81346 | -86.80276 | 3130 ft | 115 kts | 22° |
| 2026-04-26 05:24 | 35.82109 | -86.79986 | 3031 ft | 115 kts | 22° |
| 2026-04-26 05:24 | 35.82882 | -86.79689 | 2964 ft | 113 kts | 22° |
| 2026-04-26 05:24 | 35.83627 | -86.79405 | 2952 ft | 109 kts | 23° |
| 2026-04-26 05:24 | 35.84342 | -86.79129 | 2952 ft | 107 kts | 23° |
| 2026-04-26 05:25 | 35.85051 | -86.78855 | 2953 ft | 105 kts | 23° |
| 2026-04-26 05:25 | 35.85760 | -86.78580 | 2958 ft | 106 kts | 23° |
| 2026-04-26 05:25 | 35.86463 | -86.78307 | 2954 ft | 106 kts | 23° |
| 2026-04-26 05:25 | 35.87171 | -86.78030 | 2951 ft | 106 kts | 24° |
| 2026-04-26 05:26 | 35.87874 | -86.77754 | 2951 ft | 106 kts | 24° |
| 2026-04-26 05:26 | 35.88592 | -86.77471 | 2949 ft | 106 kts | 23° |
| 2026-04-26 05:26 | 35.89302 | -86.77193 | 2953 ft | 106 kts | 23° |
| 2026-04-26 05:26 | 35.90005 | -86.76917 | 2953 ft | 106 kts | 24° |
| 2026-04-26 05:27 | 35.90714 | -86.76637 | 2953 ft | 106 kts | 24° |
| 2026-04-26 05:27 | 35.91416 | -86.76360 | 2955 ft | 105 kts | 24° |
| 2026-04-26 05:27 | 35.92117 | -86.76083 | 2956 ft | 106 kts | 24° |
| 2026-04-26 05:27 | 35.92823 | -86.75804 | 2957 ft | 106 kts | 24° |
| 2026-04-26 05:28 | 35.93535 | -86.75521 | 2957 ft | 106 kts | 24° |
| 2026-04-26 05:28 | 35.94244 | -86.75241 | 2958 ft | 106 kts | 24° |
| 2026-04-26 05:28 | 35.94954 | -86.74960 | 2957 ft | 106 kts | 23° |
| 2026-04-26 05:28 | 35.95659 | -86.74682 | 2959 ft | 107 kts | 24° |
| 2026-04-26 05:29 | 35.96373 | -86.74399 | 2968 ft | 107 kts | 24° |
| 2026-04-26 05:29 | 35.97087 | -86.74116 | 2964 ft | 107 kts | 24° |
| 2026-04-26 05:29 | 35.97807 | -86.73831 | 2962 ft | 107 kts | 24° |
| 2026-04-26 05:29 | 35.98526 | -86.73541 | 2912 ft | 111 kts | 24° |
| 2026-04-26 05:30 | 35.99242 | -86.73247 | 2787 ft | 104 kts | 25° |
| 2026-04-26 05:30 | 35.99920 | -86.72968 | 2663 ft | 99 kts | 26° |
| 2026-04-26 05:30 | 36.00564 | -86.72707 | 2539 ft | 96 kts | 26° |
| 2026-04-26 05:30 | 36.01190 | -86.72443 | 2425 ft | 94 kts | 26° |
| 2026-04-26 05:31 | 36.01813 | -86.72186 | 2295 ft | 93 kts | 25° |
| 2026-04-26 05:31 | 36.02448 | -86.71929 | 2176 ft | 96 kts | 25° |
| 2026-04-26 05:31 | 36.03086 | -86.71674 | 2064 ft | 97 kts | 24° |
| 2026-04-26 05:31 | 36.03739 | -86.71414 | 1933 ft | 99 kts | 25° |
| 2026-04-26 05:32 | 36.04404 | -86.71152 | 1803 ft | 99 kts | 25° |
| 2026-04-26 05:32 | 36.05030 | -86.70906 | 1727 ft | 88 kts | 25° |
| 2026-04-26 05:32 | 36.05572 | -86.70694 | 1616 ft | 76 kts | 26° |
| 2026-04-26 05:32 | 36.06074 | -86.70493 | 1491 ft | 76 kts | 24° |
| 2026-04-26 05:33 | 36.06570 | -86.70298 | 1370 ft | 74 kts | 24° |
| 2026-04-26 05:33 | 36.07064 | -86.70099 | 1263 ft | 75 kts | 23° |
| 2026-04-26 05:33 | 36.07573 | -86.69898 | 1157 ft | 78 kts | 21° |
| 2026-04-26 05:33 | 36.08102 | -86.69692 | 1048 ft | 78 kts | 20° |
| 2026-04-26 05:34 | 36.08618 | -86.69498 | 959 ft | 77 kts | 20° |
| 2026-04-26 05:34 | 36.09143 | -86.69282 | 858 ft | 80 kts | 20° |
| 2026-04-26 05:34 | 36.09672 | -86.69067 | 766 ft | 81 kts | 19° |
| 2026-04-26 05:34 | 36.10223 | -86.68842 | 661 ft | 80 kts | 19° |
| 2026-04-26 05:35 | 36.10754 | -86.68632 | 577 ft | 76 kts | 18° |
| 2026-04-26 05:35 | 36.11218 | -86.68440 | 564 ft | 64 kts | 16° |
| 2026-04-26 05:35 | 36.11574 | -86.68298 | 553 ft | 29 kts | 21° |
| 2026-04-26 05:35 | 36.11617 | -86.68185 | 553 ft | 13 kts | 131° |
| 2026-04-26 05:36 | 36.11529 | -86.68170 | 553 ft | 13 kts | 197° |
| 2026-04-26 05:36 | 36.11443 | -86.68160 | 553 ft | 14 kts | 114° |
| 2026-04-26 05:36 | 36.11403 | -86.68063 | 553 ft | 11 kts | 114° |
| 2026-04-26 05:36 | 36.11397 | -86.67995 | 553 ft | 2 kts | 25° |
| 2026-04-26 05:37 | 36.11398 | -86.67995 | 553 ft | 0 kts | 22° |
| 2026-04-26 05:38 | 36.11405 | -86.67995 | 553 ft | 4 kts | 338° |
| 2026-04-26 05:38 | 36.11375 | -86.68056 | 553 ft | 14 kts | 225° |
| 2026-04-26 05:38 | 36.11280 | -86.68150 | 553 ft | 18 kts | 195° |
| 2026-04-26 05:39 | 36.11232 | -86.68225 | 553 ft | 13 kts | 330° |
| 2026-04-26 05:39 | 36.11333 | -86.68286 | 553 ft | 19 kts | 343° |
| 2026-04-26 05:39 | 36.11456 | -86.68341 | 553 ft | 23 kts | 7° |
| 2026-04-26 05:39 | 36.11721 | -86.68242 | 553 ft | 62 kts | 17° |
| 2026-04-26 05:40 | 36.12239 | -86.68036 | 630 ft | 84 kts | 18° |
| 2026-04-26 05:40 | 36.12799 | -86.67820 | 838 ft | 81 kts | 21° |
| 2026-04-26 05:40 | 36.13326 | -86.67607 | 1052 ft | 78 kts | 24° |
| 2026-04-26 05:40 | 36.13652 | -86.67179 | 1313 ft | 64 kts | 76° |
| 2026-04-26 05:41 | 36.13549 | -86.66658 | 1541 ft | 67 kts | 109° |
| 2026-04-26 05:41 | 36.13244 | -86.66183 | 1688 ft | 77 kts | 132° |
| 2026-04-26 05:41 | 36.12690 | -86.65979 | 1819 ft | 92 kts | 166° |
| 2026-04-26 05:41 | 36.12028 | -86.66065 | 1884 ft | 97 kts | 173° |
| 2026-04-26 05:42 | 36.11353 | -86.66099 | 1895 ft | 95 kts | 169° |
| 2026-04-26 05:42 | 36.10696 | -86.66113 | 1867 ft | 93 kts | 172° |
| 2026-04-26 05:42 | 36.10037 | -86.66174 | 1809 ft | 94 kts | 171° |
| 2026-04-26 05:42 | 36.09368 | -86.66252 | 1732 ft | 97 kts | 177° |
| 2026-04-26 05:43 | 36.08692 | -86.66374 | 1675 ft | 98 kts | 184° |
| 2026-04-26 05:43 | 36.08095 | -86.66853 | 1563 ft | 107 kts | 225° |
| 2026-04-26 05:43 | 36.07715 | -86.67612 | 1494 ft | 98 kts | 253° |
| 2026-04-26 05:43 | 36.07694 | -86.68432 | 1476 ft | 95 kts | 286° |
| 2026-04-26 05:44 | 36.07974 | -86.69099 | 1541 ft | 85 kts | 317° |
| 2026-04-26 05:44 | 36.08451 | -86.69465 | 1477 ft | 78 kts | 354° |
| 2026-04-26 05:44 | 36.08946 | -86.69426 | 1282 ft | 69 kts | 25° |
| 2026-04-26 05:44 | 36.09432 | -86.69196 | 1015 ft | 77 kts | 26° |
| 2026-04-26 05:45 | 36.09925 | -86.68962 | 836 ft | 74 kts | 24° |
| 2026-04-26 05:45 | 36.10422 | -86.68763 | 638 ft | 75 kts | 21° |
| 2026-04-26 05:45 | 36.10881 | -86.68581 | 563 ft | 61 kts | 19° |
| 2026-04-26 05:45 | 36.11251 | -86.68433 | 553 ft | 60 kts | 17° |
| 2026-04-26 05:46 | 36.11721 | -86.68253 | 693 ft | 72 kts | 18° |
| 2026-04-26 05:46 | 36.12183 | -86.68095 | 980 ft | 65 kts | 18° |
| 2026-04-26 05:46 | 36.12607 | -86.67909 | 1212 ft | 66 kts | 38° |
| 2026-04-26 05:46 | 36.12813 | -86.67460 | 1506 ft | 60 kts | 90° |
| 2026-04-26 05:47 | 36.12654 | -86.66939 | 1720 ft | 69 kts | 104° |
| 2026-04-26 05:47 | 36.12398 | -86.66356 | 1837 ft | 78 kts | 114° |
| 2026-04-26 05:47 | 36.12078 | -86.65825 | 1986 ft | 80 kts | 127° |
| 2026-04-26 05:47 | 36.11489 | -86.65549 | 2014 ft | 97 kts | 162° |
| 2026-04-26 05:48 | 36.10811 | -86.65724 | 1967 ft | 106 kts | 196° |
| 2026-04-26 05:48 | 36.10149 | -86.66170 | 1869 ft | 111 kts | 201° |
| 2026-04-26 05:48 | 36.09447 | -86.66646 | 1706 ft | 114 kts | 200° |
| 2026-04-26 05:48 | 36.08763 | -86.67072 | 1625 ft | 110 kts | 198° |
| 2026-04-26 05:49 | 36.08083 | -86.67436 | 1629 ft | 99 kts | 191° |
| 2026-04-26 05:49 | 36.06807 | -86.67911 | 1747 ft | 95 kts | 178° |
| 2026-04-26 05:49 | 36.06133 | -86.67966 | 1786 ft | 96 kts | 172° |
| 2026-04-26 05:50 | 36.05469 | -86.67965 | 1817 ft | 101 kts | 177° |
| 2026-04-26 05:50 | 36.04782 | -86.68356 | 1689 ft | 111 kts | 213° |
| 2026-04-26 05:50 | 36.04486 | -86.69122 | 1767 ft | 98 kts | 261° |
| 2026-04-26 05:50 | 36.04523 | -86.69952 | 1783 ft | 93 kts | 294° |
| 2026-04-26 05:51 | 36.04903 | -86.70545 | 1736 ft | 84 kts | 337° |
| 2026-04-26 05:51 | 36.05449 | -86.70718 | 1613 ft | 78 kts | 9° |
| 2026-04-26 05:51 | 36.05971 | -86.70589 | 1480 ft | 74 kts | 25° |
| 2026-04-26 05:51 | 36.06465 | -86.70367 | 1360 ft | 75 kts | 28° |
| 2026-04-26 05:52 | 36.06520 | -86.70338 | 1350 ft | 74 kts | 30° |